Terminal Aerodrome Forecast
Issued by NWS

Current Version | Previous Version | Text Only | Print | Product List | Glossary On
Versions: 1 2 3 4 5 6 7 8 9 10 11 12 13
000
FTUS45 KABQ 272300
TAFTCC
TAF
KTCC 272331Z 2800/2824 20010KT P6SM SKC
     FM280200 27010KT P6SM SKC
      TEMPO 2819/2822 28011G18KT
     FM282300 02008KT P6SM SKC=

USA.gov is the U.S. government's official web portal to all federal, state and local government web resources and services.